Standale, Michigan
Current Conditions -  °F | °C
As of 4:53 AM on Sunday 23 Nov 2014 (Local Time) from KGRR Reporting Station
Overcast Overcast  
Wind Chill: 41°   Ceiling: 1300
Heat Index: 47°   Visibility: 8mi
Dew Point: 43°   Wind: 13mph
Humidity: 86%   Direction: 180°S
Pressure: 29.84"   Gusts: NA
Location:  42.9769°N, 85.7689°W
Report Text: KGRR 230953Z AUTO 18011KT 8SM OVC013 08/06 A2984 RMK AO2 SLP110 T00830061
Loading
Personal Weather Stations






























Interactive Weather Map New forecast layout! Learn more

10-Day Weather Forecast

Advertisements
Track Severe Weather on mobile